Time;durP1;ratioP1;P1;durP2;ratioP2;P2;SDS_P1;SDS_P2;PMS_P1;PMS_P2;Temp;Humidity;BMP_temperature;BMP_pressure;BME280_temperature;BME280_humidity;BME280_pressure;Samples;Min_cycle;Max_cycle;Signal;HPM_P1;HPM_P2
2022/07/18 00:01:26;;;;;;;0.87;0.87;;;17.40;54.60;;;;;;5110467;28;20612;-80
2022/07/18 00:03:53;;;;;;;0.97;0.93;;;17.30;55.40;;;;;;5109632;28;20652;-80
2022/07/18 00:06:20;;;;;;;0.80;0.80;;;17.30;56.30;;;;;;5111065;28;20677;-80
2022/07/18 00:08:46;;;;;;;1.13;1.10;;;17.30;56.10;;;;;;5109877;28;20619;-80
2022/07/18 00:11:16;;;;;;;1.00;0.90;;;17.30;56.00;;;;;;5110393;28;20599;-80
2022/07/18 00:13:44;;;;;;;1.47;0.93;;;17.20;55.50;;;;;;5108788;28;20611;-80
2022/07/18 00:16:11;;;;;;;1.00;0.90;;;17.30;55.40;;;;;;5110075;28;20620;-80
2022/07/18 00:18:39;;;;;;;1.03;0.93;;;17.20;55.50;;;;;;5110490;28;21161;-81
2022/07/18 00:21:07;;;;;;;1.13;1.00;;;17.10;55.10;;;;;;5110389;28;20669;-80
2022/07/18 00:23:34;;;;;;;1.03;0.80;;;17.00;54.70;;;;;;5109425;28;20740;-80
2022/07/18 00:26:02;;;;;;;1.30;1.20;;;16.90;53.50;;;;;;5110532;28;20623;-81
2022/07/18 00:28:30;;;;;;;0.77;0.77;;;16.80;53.90;;;;;;5110415;28;20595;-80
2022/07/18 00:30:57;;;;;;;0.80;0.80;;;16.80;53.80;;;;;;5110419;28;21177;-80
2022/07/18 00:33:25;;;;;;;0.93;0.93;;;16.90;54.10;;;;;;5109584;28;20627;-80
2022/07/18 00:35:53;;;;;;;1.30;1.13;;;16.90;53.50;;;;;;5110085;28;20604;-81
2022/07/18 00:38:21;;;;;;;0.70;0.70;;;16.90;52.10;;;;;;5110432;28;20607;-80
2022/07/18 00:40:48;;;;;;;0.90;0.90;;;16.90;51.40;;;;;;5110439;28;20608;-81
2022/07/18 00:43:16;;;;;;;2.03;0.83;;;16.90;50.80;;;;;;5110950;28;20619;-80
2022/07/18 00:45:47;;;;;;;0.90;0.90;;;16.90;50.80;;;;;;5114834;28;20743;-81
2022/07/18 00:48:15;;;;;;;0.93;0.93;;;16.80;50.70;;;;;;5113649;28;20600;-80
2022/07/18 00:50:45;;;;;;;0.80;0.80;;;16.90;50.70;;;;;;5114489;28;20611;-80
2022/07/18 00:53:14;;;;;;;0.80;0.77;;;16.90;50.80;;;;;;5113293;28;20615;-80
2022/07/18 00:55:43;;;;;;;1.17;1.00;;;16.80;50.40;;;;;;5114300;28;21006;-80
2022/07/18 00:58:11;;;;;;;0.87;0.87;;;16.80;50.80;;;;;;5113751;28;20649;-80
2022/07/18 01:03:25;;;;;;;0.80;0.77;;;16.80;51.30;;;;;;5113349;28;20615;-81
2022/07/18 01:05:52;;;;;;;1.23;1.00;;;16.70;50.80;;;;;;5114247;28;20979;-80
2022/07/18 01:08:19;;;;;;;1.17;1.07;;;16.70;50.80;;;;;;5113611;28;20669;-80
2022/07/18 01:10:46;;;;;;;1.37;1.07;;;16.70;51.40;;;;;;5113925;28;20592;-80
2022/07/18 01:13:13;;;;;;;0.83;0.83;;;16.60;51.90;;;;;;5113125;28;20669;-80
2022/07/18 01:15:40;;;;;;;0.93;0.93;;;16.60;51.60;;;;;;5113821;28;20677;-80
2022/07/18 01:18:08;;;;;;;0.90;0.90;;;16.70;51.80;;;;;;5113517;28;20676;-80
2022/07/18 01:20:37;;;;;;;0.70;0.70;;;16.60;51.10;;;;;;5113575;28;20706;-81
2022/07/18 01:23:04;;;;;;;1.10;0.70;;;16.50;50.80;;;;;;5112851;28;20654;-80
2022/07/18 01:25:33;;;;;;;0.93;0.93;;;16.40;50.80;;;;;;5113095;28;21111;-80
2022/07/18 01:28:00;;;;;;;1.20;1.10;;;16.40;51.30;;;;;;5113041;28;20603;-80
2022/07/18 01:30:28;;;;;;;0.97;0.93;;;16.40;51.20;;;;;;5113563;28;21012;-81
2022/07/18 01:32:57;;;;;;;0.83;0.80;;;16.40;50.50;;;;;;5112434;28;21224;-81
2022/07/18 01:35:26;;;;;;;2.10;1.00;;;16.50;50.00;;;;;;5112969;28;20635;-80
2022/07/18 01:37:57;;;;;;;0.60;0.60;;;16.50;50.50;;;;;;5113127;28;20643;-81
2022/07/18 01:40:25;;;;;;;0.70;0.70;;;16.50;50.60;;;;;;5112750;28;20612;-81
2022/07/18 01:42:53;;;;;;;0.60;0.50;;;16.50;50.20;;;;;;5112791;28;21225;-80
2022/07/18 01:45:21;;;;;;;0.43;0.43;;;16.50;50.10;;;;;;5113239;28;21185;-80
2022/07/18 01:47:50;;;;;;;0.60;0.60;;;16.50;50.40;;;;;;5113165;28;20619;-80
2022/07/18 01:50:18;;;;;;;0.97;0.67;;;16.50;51.00;;;;;;5113005;28;20623;-80
2022/07/18 01:52:46;;;;;;;1.03;0.77;;;16.40;51.60;;;;;;5112534;28;20600;-80
2022/07/18 01:55:14;;;;;;;0.80;0.80;;;16.30;52.00;;;;;;5111727;28;20592;-80
2022/07/18 01:57:42;;;;;;;0.80;0.80;;;16.20;52.40;;;;;;5113433;28;20600;-79
2022/07/18 02:00:12;;;;;;;0.60;0.60;;;16.10;52.00;;;;;;5113350;28;20656;-80
2022/07/18 02:02:40;;;;;;;1.87;0.67;;;16.10;51.60;;;;;;5112752;28;20612;-80
2022/07/18 02:05:07;;;;;;;1.73;0.80;;;16.20;51.90;;;;;;5113149;27;21209;-80
2022/07/18 02:07:36;;;;;;;0.87;0.83;;;16.20;52.80;;;;;;5112965;28;20751;-80
2022/07/18 02:10:07;;;;;;;0.87;0.60;;;16.10;52.10;;;;;;5113047;28;20612;-80
2022/07/18 02:12:36;;;;;;;0.90;0.77;;;16.10;52.20;;;;;;5112456;28;20627;-79
2022/07/18 02:15:04;;;;;;;0.60;0.60;;;16.10;52.50;;;;;;5113191;28;20627;-80
2022/07/18 02:17:31;;;;;;;1.03;0.90;;;16.00;53.40;;;;;;5113253;28;20619;-80
2022/07/18 02:19:58;;;;;;;0.93;0.70;;;15.90;53.70;;;;;;5112574;28;21214;-80
2022/07/18 02:22:25;;;;;;;1.00;0.70;;;15.80;53.10;;;;;;5112460;28;20707;-80
2022/07/18 02:24:53;;;;;;;1.37;1.20;;;15.80;52.30;;;;;;5112622;28;20643;-80
2022/07/18 02:27:20;;;;;;;0.57;0.50;;;15.80;52.90;;;;;;5113230;28;20596;-80
2022/07/18 02:29:50;;;;;;;0.60;0.60;;;15.90;53.40;;;;;;5113086;28;20997;-80
2022/07/18 02:32:17;;;;;;;1.07;1.07;;;15.90;53.80;;;;;;5112065;28;21092;-80
2022/07/18 02:34:45;;;;;;;0.80;0.80;;;15.80;52.10;;;;;;5111902;28;21169;-80
2022/07/18 02:37:11;;;;;;;0.90;0.90;;;15.80;51.90;;;;;;5112842;28;20722;-80
2022/07/18 02:39:38;;;;;;;0.97;0.80;;;15.70;52.30;;;;;;5112572;28;20640;-80
2022/07/18 02:42:06;;;;;;;2.40;0.90;;;15.70;52.60;;;;;;5112467;28;20642;-80
2022/07/18 02:44:33;;;;;;;1.37;0.90;;;15.70;53.10;;;;;;5112202;28;21049;-80
2022/07/18 02:47:01;;;;;;;1.47;1.37;;;15.70;53.60;;;;;;5112786;28;20718;-80
2022/07/18 02:49:28;;;;;;;1.00;0.80;;;15.60;54.10;;;;;;5111963;28;21348;-80
2022/07/18 02:51:56;;;;;;;0.70;0.70;;;15.60;53.20;;;;;;5112475;28;20615;-80
2022/07/18 02:54:23;;;;;;;1.20;1.10;;;15.60;52.90;;;;;;5111692;28;20639;-80
2022/07/18 02:56:51;;;;;;;0.70;0.70;;;15.60;53.10;;;;;;5112380;28;20607;-80
2022/07/18 02:59:18;;;;;;;1.43;1.13;;;15.60;53.20;;;;;;5112230;28;21468;-80
2022/07/18 03:01:45;;;;;;;1.70;1.60;;;15.50;53.80;;;;;;5111888;28;20680;-80
2022/07/18 03:04:13;;;;;;;0.77;0.77;;;15.50;53.70;;;;;;5111432;28;20648;-80
2022/07/18 03:06:40;;;;;;;1.30;1.20;;;15.60;53.80;;;;;;5111222;28;21116;-80
2022/07/18 03:09:07;;;;;;;1.27;1.10;;;15.60;53.70;;;;;;5112035;28;20615;-80
2022/07/18 03:11:33;;;;;;;1.23;1.13;;;15.60;56.50;;;;;;5111741;28;21272;-80
2022/07/18 03:14:00;;;;;;;1.20;1.03;;;15.60;56.90;;;;;;5109868;28;20608;-80
2022/07/18 03:16:27;;;;;;;1.37;1.27;;;15.50;57.00;;;;;;5111636;28;20993;-80
2022/07/18 03:18:54;;;;;;;1.63;1.50;;;15.50;57.50;;;;;;5112127;28;20714;-80
2022/07/18 03:21:23;;;;;;;1.83;1.17;;;15.50;58.00;;;;;;5111974;28;20635;-80
2022/07/18 03:23:50;;;;;;;1.43;1.33;;;15.50;57.40;;;;;;5111005;28;20620;-80
2022/07/18 03:26:17;;;;;;;1.83;1.47;;;15.40;57.50;;;;;;5111322;28;21296;-80
2022/07/18 03:28:43;;;;;;;1.67;0.93;;;15.30;57.40;;;;;;5111327;28;20658;-80
2022/07/18 03:31:11;;;;;;;2.37;1.10;;;15.30;57.20;;;;;;5111689;28;20641;-80
2022/07/18 03:33:38;;;;;;;1.83;1.60;;;15.20;57.20;;;;;;5099703;28;20639;-80
2022/07/18 03:36:06;;;;;;;1.17;1.07;;;15.30;57.70;;;;;;5110824;28;21073;-82
2022/07/18 03:38:35;;;;;;;0.77;0.77;;;15.30;57.60;;;;;;5110415;28;20623;-80
2022/07/18 03:41:02;;;;;;;1.23;1.13;;;15.30;57.90;;;;;;5110408;28;20635;-80
2022/07/18 03:43:30;;;;;;;0.90;0.90;;;15.30;58.20;;;;;;5109410;28;20619;-80
2022/07/18 03:45:57;;;;;;;0.80;0.80;;;15.30;58.20;;;;;;5110071;28;21318;-80
2022/07/18 03:48:24;;;;;;;1.20;1.20;;;15.30;58.30;;;;;;5110716;28;20624;-80
2022/07/18 03:50:51;;;;;;;2.33;1.20;;;15.30;58.30;;;;;;5110617;28;20707;-81
2022/07/18 03:53:18;;;;;;;1.07;0.97;;;15.20;58.00;;;;;;5110309;28;20772;-80
2022/07/18 03:55:46;;;;;;;1.70;1.60;;;15.20;57.80;;;;;;5110322;28;20689;-80
2022/07/18 03:58:13;;;;;;;1.80;1.70;;;15.20;58.50;;;;;;5110928;28;20720;-80
2022/07/18 04:00:40;;;;;;;2.27;2.00;;;15.20;59.70;;;;;;5111668;28;21030;-80
2022/07/18 04:03:07;;;;;;;1.47;1.37;;;15.30;59.70;;;;;;5110900;28;20654;-80
2022/07/18 04:05:34;;;;;;;0.97;0.90;;;15.30;58.20;;;;;;5110944;28;20655;-80
2022/07/18 04:08:01;;;;;;;0.97;0.97;;;15.30;58.10;;;;;;5111415;28;21235;-80
2022/07/18 04:10:28;;;;;;;2.37;1.70;;;15.40;58.10;;;;;;5111193;28;20608;-80
2022/07/18 04:12:57;;;;;;;1.50;1.37;;;15.40;58.20;;;;;;5110204;28;20625;-80
2022/07/18 04:15:25;;;;;;;1.33;1.10;;;15.40;59.80;;;;;;5111266;28;20642;-80
2022/07/18 04:17:53;;;;;;;1.37;1.00;;;15.40;59.50;;;;;;5111979;28;20754;-80
2022/07/18 04:20:21;;;;;;;1.80;0.97;;;15.40;59.80;;;;;;5115304;28;20610;-80
2022/07/18 04:22:50;;;;;;;1.07;0.97;;;15.30;59.50;;;;;;5114453;28;20626;-80
2022/07/18 04:25:18;;;;;;;1.10;1.00;;;15.30;60.00;;;;;;5115043;28;21077;-80
2022/07/18 04:27:45;;;;;;;1.10;1.10;;;15.30;59.90;;;;;;5114876;28;21041;-80
2022/07/18 04:30:14;;;;;;;1.50;1.40;;;15.30;60.50;;;;;;5115441;28;20710;-80
2022/07/18 04:32:42;;;;;;;1.03;0.87;;;15.50;59.80;;;;;;5114211;28;20622;-80
2022/07/18 04:35:09;;;;;;;1.47;1.37;;;15.50;59.90;;;;;;5114885;28;21566;-81
2022/07/18 04:37:37;;;;;;;1.20;0.90;;;15.60;60.00;;;;;;5114307;28;21130;-81
2022/07/18 04:40:04;;;;;;;2.77;1.90;;;15.60;60.10;;;;;;5115048;28;20627;-81
2022/07/18 04:42:31;;;;;;;1.83;1.53;;;15.70;60.80;;;;;;5114113;28;20615;-81
2022/07/18 04:44:58;;;;;;;2.23;1.17;;;15.70;61.80;;;;;;5114711;28;21335;-81
2022/07/18 04:47:27;;;;;;;2.57;2.10;;;15.90;63.10;;;;;;5114893;27;20656;-81
2022/07/18 04:49:55;;;;;;;1.70;1.60;;;16.00;62.80;;;;;;5114770;28;20718;-81
2022/07/18 04:52:23;;;;;;;1.37;1.30;;;16.20;61.30;;;;;;5113561;28;20643;-81
2022/07/18 04:54:50;;;;;;;2.00;1.80;;;16.40;60.30;;;;;;5114454;28;20630;-81
2022/07/18 04:57:18;;;;;;;1.57;1.47;;;16.50;59.70;;;;;;5113146;28;20627;-81
2022/07/18 04:59:45;;;;;;;1.73;1.47;;;16.60;59.90;;;;;;5114715;28;21163;-81
2022/07/18 05:02:12;;;;;;;4.00;1.40;;;16.60;60.90;;;;;;5113998;28;20726;-81
2022/07/18 05:04:40;;;;;;;1.60;1.50;;;16.60;62.00;;;;;;5113549;28;21214;-81
2022/07/18 05:07:08;;;;;;;1.50;1.40;;;16.70;60.70;;;;;;5114497;27;20607;-81
2022/07/18 05:09:34;;;;;;;2.60;1.47;;;16.80;60.10;;;;;;5114156;28;20664;-81
2022/07/18 05:12:02;;;;;;;1.70;1.60;;;17.00;58.30;;;;;;5114595;27;20718;-81
2022/07/18 05:14:29;;;;;;;1.77;1.67;;;17.10;57.90;;;;;;5113680;28;21242;-81
2022/07/18 05:16:56;;;;;;;3.30;2.00;;;17.20;58.60;;;;;;5112306;28;20631;-81
2022/07/18 05:19:23;;;;;;;2.50;1.73;;;17.30;57.80;;;;;;5111062;28;21241;-82
2022/07/18 05:21:51;;;;;;;2.50;1.77;;;17.30;57.60;;;;;;5111271;28;20608;-82
2022/07/18 05:24:18;;;;;;;1.83;1.57;;;17.50;57.30;;;;;;5110531;28;20639;-82
2022/07/18 05:26:45;;;;;;;1.80;1.63;;;17.50;57.00;;;;;;5111039;28;20647;-82
2022/07/18 05:29:13;;;;;;;1.63;1.53;;;17.60;57.10;;;;;;5110323;28;20662;-82
2022/07/18 05:31:41;;;;;;;1.67;1.53;;;17.70;56.80;;;;;;5110336;28;20619;-82
2022/07/18 05:34:08;;;;;;;1.60;1.50;;;17.80;56.40;;;;;;5109808;28;20624;-82
2022/07/18 05:36:35;;;;;;;2.37;2.17;;;17.90;56.50;;;;;;5110189;28;20651;-80
2022/07/18 05:39:04;;;;;;;1.77;1.67;;;17.90;56.60;;;;;;5109382;28;21177;-82
2022/07/18 05:41:31;;;;;;;1.70;1.60;;;17.90;56.60;;;;;;5106627;28;20604;-82
2022/07/18 05:43:58;;;;;;;3.47;2.80;;;18.10;56.60;;;;;;5108891;28;20647;-82
2022/07/18 05:46:25;;;;;;;5.33;2.10;;;18.20;56.80;;;;;;5108462;28;20666;-82
2022/07/18 05:48:53;;;;;;;2.40;2.20;;;18.30;57.60;;;;;;5110393;28;21169;-82
2022/07/18 05:51:21;;;;;;;1.73;1.63;;;18.40;57.20;;;;;;5099723;28;20716;-81
2022/07/18 05:53:49;;;;;;;4.50;2.20;;;18.50;56.90;;;;;;5087595;28;20635;-82
2022/07/18 05:56:17;;;;;;;2.03;1.90;;;18.60;56.60;;;;;;5108080;28;20630;-81
2022/07/18 05:58:44;;;;;;;1.40;1.30;;;18.70;56.70;;;;;;5108502;28;21177;-82
2022/07/18 06:01:11;;;;;;;1.77;1.67;;;18.70;56.20;;;;;;5109371;28;21165;-81
2022/07/18 06:03:38;;;;;;;2.63;1.67;;;18.70;56.10;;;;;;5107936;28;20634;-82
2022/07/18 06:06:05;;;;;;;2.17;1.60;;;18.70;56.00;;;;;;5108989;28;20724;-81
2022/07/18 06:08:32;;;;;;;4.40;1.60;;;18.80;55.20;;;;;;5109150;28;20730;-81
2022/07/18 06:10:59;;;;;;;1.50;1.40;;;18.80;54.70;;;;;;5109323;28;20659;-82
2022/07/18 06:13:27;;;;;;;2.13;1.80;;;18.90;54.00;;;;;;5108015;28;20631;-81
2022/07/18 06:15:54;;;;;;;1.70;1.60;;;19.00;54.00;;;;;;5109426;28;20635;-81
2022/07/18 06:18:21;;;;;;;1.77;1.67;;;19.10;55.20;;;;;;5099531;28;20689;-82
2022/07/18 06:20:48;;;;;;;1.67;1.50;;;19.10;53.90;;;;;;5089112;28;20661;-81
2022/07/18 06:23:15;;;;;;;0.90;0.90;;;19.30;54.10;;;;;;5088087;28;21374;-82
2022/07/18 06:25:42;;;;;;;2.13;1.77;;;19.50;54.60;;;;;;5088640;28;21056;-81
2022/07/18 06:28:09;;;;;;;1.40;1.30;;;19.40;54.70;;;;;;5087669;28;20677;-83
2022/07/18 06:30:37;;;;;;;1.87;1.77;;;19.50;53.60;;;;;;5097474;28;20670;-82
2022/07/18 06:33:05;;;;;;;2.83;1.50;;;19.70;54.80;;;;;;5108308;28;20708;-82
2022/07/18 06:35:32;;;;;;;2.60;1.80;;;19.80;54.50;;;;;;5109090;28;21260;-83
2022/07/18 06:37:59;;;;;;;1.93;1.83;;;20.00;54.40;;;;;;5109043;28;20673;-82
2022/07/18 06:40:26;;;;;;;2.33;1.50;;;20.10;54.80;;;;;;5107500;28;20615;-82
2022/07/18 06:42:53;;;;;;;1.30;1.20;;;20.20;54.90;;;;;;5101721;28;20690;-82
2022/07/18 06:45:23;;;;;;;2.40;1.60;;;20.30;55.30;;;;;;5087983;28;20662;-82
2022/07/18 06:47:51;;;;;;;2.50;2.00;;;20.40;54.30;;;;;;5088663;28;20630;-82
2022/07/18 06:50:18;;;;;;;1.80;1.30;;;20.60;54.60;;;;;;5088242;28;21054;-82
2022/07/18 06:52:46;;;;;;;1.83;1.60;;;20.70;54.90;;;;;;5087831;28;20636;-82
2022/07/18 06:55:14;;;;;;;2.83;1.77;;;20.70;54.20;;;;;;5094602;28;20612;-83
2022/07/18 06:57:42;;;;;;;1.70;1.60;;;20.90;54.90;;;;;;5108438;28;21009;-82
2022/07/18 07:00:11;;;;;;;2.03;1.80;;;21.00;54.40;;;;;;5108308;28;20655;-83
2022/07/18 07:02:44;;;;;;;1.43;1.33;;;21.20;54.10;;;;;;5107599;28;20622;-83
2022/07/18 07:05:14;;;;;;;2.23;1.47;;;21.30;53.70;;;;;;5108528;28;20710;-82
2022/07/18 07:07:41;;;;;;;2.10;1.90;;;21.40;53.90;;;;;;5107462;27;20739;-82
2022/07/18 07:10:09;;;;;;;2.13;2.03;;;21.50;53.70;;;;;;5108646;28;20825;-83
2022/07/18 07:12:40;;;;;;;2.47;1.90;;;21.60;52.50;;;;;;5107074;28;20711;-83
2022/07/18 07:15:11;;;;;;;1.83;1.73;;;21.70;52.90;;;;;;5108374;28;20630;-83
2022/07/18 07:17:38;;;;;;;1.77;1.67;;;21.80;53.10;;;;;;5108186;28;21241;-82
2022/07/18 07:20:07;;;;;;;2.47;2.00;;;21.90;51.30;;;;;;5107077;28;20668;-83
2022/07/18 07:22:43;;;;;;;3.00;2.00;;;22.00;51.90;;;;;;5106645;27;20681;-84
2022/07/18 07:25:11;;;;;;;1.63;1.47;;;22.10;50.70;;;;;;5104615;28;20716;-81
2022/07/18 07:27:38;;;;;;;2.43;2.23;;;22.20;51.20;;;;;;5101191;28;20620;-81
2022/07/18 07:30:05;;;;;;;1.40;1.30;;;22.40;51.00;;;;;;5107071;28;20644;-81
2022/07/18 07:32:35;;;;;;;2.00;1.80;;;22.50;51.00;;;;;;5103242;28;21390;-80
2022/07/18 07:35:02;;;;;;;1.70;1.60;;;22.50;51.10;;;;;;5107649;28;20623;-81
2022/07/18 07:37:29;;;;;;;1.17;1.17;;;22.60;50.60;;;;;;5107683;28;20712;-83
2022/07/18 07:39:57;;;;;;;2.10;1.90;;;22.70;49.90;;;;;;5107657;28;20619;-80
2022/07/18 07:42:24;;;;;;;1.30;1.20;;;22.90;49.40;;;;;;5105578;28;20628;-81
2022/07/18 07:44:51;;;;;;;3.17;1.53;;;23.00;50.60;;;;;;5106655;28;20707;-81
2022/07/18 07:47:18;;;;;;;3.13;1.80;;;23.10;50.20;;;;;;5086780;28;20690;-83
2022/07/18 07:49:45;;;;;;;2.13;1.87;;;23.30;48.90;;;;;;5086937;28;20644;-80
2022/07/18 07:52:13;;;;;;;1.47;1.37;;;23.40;48.90;;;;;;5086439;28;21256;-81
2022/07/18 07:54:40;;;;;;;2.00;1.67;;;23.40;47.80;;;;;;5086966;28;20637;-80
2022/07/18 07:57:08;;;;;;;2.40;2.20;;;23.50;48.60;;;;;;5088342;28;21070;-80
2022/07/18 07:59:35;;;;;;;1.97;1.77;;;23.50;47.40;;;;;;5103621;28;20669;-81
2022/07/18 08:02:02;;;;;;;1.53;1.20;;;23.60;48.10;;;;;;5102875;28;21173;-83
2022/07/18 08:04:29;;;;;;;1.63;1.53;;;23.80;48.40;;;;;;5085734;28;21201;-81
2022/07/18 08:06:56;;;;;;;1.30;1.20;;;24.00;48.00;;;;;;5087047;28;20652;-82
2022/07/18 08:09:22;;;;;;;1.30;1.20;;;24.10;47.20;;;;;;5086933;28;20625;-81
2022/07/18 08:11:49;;;;;;;1.50;1.40;;;24.20;46.20;;;;;;5086582;28;20659;-81
2022/07/18 08:14:18;;;;;;;2.07;1.97;;;24.40;45.60;;;;;;5085201;28;21202;-81
2022/07/18 08:16:44;;;;;;;1.37;1.23;;;24.50;46.30;;;;;;5105407;28;20608;-82
2022/07/18 08:19:11;;;;;;;1.80;1.70;;;24.60;45.70;;;;;;5105792;28;20709;-84
2022/07/18 08:21:38;;;;;;;1.50;1.40;;;24.70;45.30;;;;;;5106844;28;20623;-83
2022/07/18 08:24:06;;;;;;;1.47;1.37;;;24.90;44.40;;;;;;5105461;28;21147;-83
2022/07/18 08:26:34;;;;;;;1.00;1.00;;;24.90;44.30;;;;;;5106307;28;20838;-83
2022/07/18 08:29:00;;;;;;;1.77;1.67;;;25.00;45.50;;;;;;5106787;28;20628;-83
2022/07/18 08:31:29;;;;;;;1.77;1.67;;;25.00;45.00;;;;;;5106746;28;20632;-83
2022/07/18 08:33:56;;;;;;;1.60;1.50;;;25.00;46.10;;;;;;5105912;28;20624;-83
2022/07/18 08:36:24;;;;;;;1.60;1.50;;;25.10;44.80;;;;;;5106930;28;20689;-83
2022/07/18 08:38:51;;;;;;;1.80;1.57;;;25.00;45.20;;;;;;5106915;28;20971;-83
2022/07/18 08:41:18;;;;;;;1.47;1.30;;;25.30;45.70;;;;;;5105974;28;20655;-83
2022/07/18 08:43:46;;;;;;;1.23;1.20;;;25.50;45.70;;;;;;5105463;28;20622;-83
2022/07/18 08:46:13;;;;;;;3.13;1.83;;;25.70;46.00;;;;;;5106981;28;21279;-84
2022/07/18 08:48:43;;;;;;;1.80;1.70;;;25.80;45.30;;;;;;5106257;28;20644;-83
2022/07/18 08:51:09;;;;;;;1.77;1.63;;;26.00;44.40;;;;;;5106113;28;20727;-83
2022/07/18 08:53:38;;;;;;;1.60;1.50;;;26.10;44.70;;;;;;5084849;28;20690;-84
2022/07/18 08:56:05;;;;;;;2.47;1.63;;;26.20;44.60;;;;;;5086762;28;21003;-84
2022/07/18 08:58:33;;;;;;;1.80;1.70;;;26.30;44.40;;;;;;5100966;28;20612;-84
2022/07/18 09:01:00;;;;;;;1.80;1.70;;;26.30;44.00;;;;;;5097924;28;20623;-84
2022/07/18 09:03:27;;;;;;;1.60;1.50;;;26.50;43.00;;;;;;5103179;28;20628;-82
2022/07/18 09:06:06;;;;;;;1.60;1.50;;;26.60;43.70;;;;;;5109855;28;21107;-82
2022/07/18 09:08:33;;;;;;;2.37;2.00;;;26.70;43.00;;;;;;5109496;28;20642;-81
2022/07/18 09:11:02;;;;;;;2.00;1.90;;;26.70;43.50;;;;;;5110308;28;20630;-81
2022/07/18 09:13:37;;;;;;;2.07;1.97;;;26.60;44.20;;;;;;5110242;28;20649;-81
2022/07/18 09:16:07;;;;;;;1.53;1.43;;;26.80;42.20;;;;;;5111043;28;20630;-81
2022/07/18 09:18:37;;;;;;;1.60;1.50;;;27.00;42.00;;;;;;5110845;28;20611;-82
2022/07/18 09:21:09;;;;;;;2.03;1.70;;;27.10;40.50;;;;;;5111008;28;20624;-82
2022/07/18 09:23:39;;;;;;;1.73;1.33;;;27.30;40.30;;;;;;5109892;28;20651;-82
2022/07/18 09:26:07;;;;;;;1.83;1.73;;;27.40;41.00;;;;;;5102371;28;20624;-82
2022/07/18 09:28:47;;;;;;;1.70;1.53;;;27.40;40.00;;;;;;5090047;28;20625;-83
2022/07/18 09:31:20;;;;;;;1.43;1.33;;;27.60;40.10;;;;;;5090115;28;21011;-82
2022/07/18 09:33:53;;;;;;;1.37;1.27;;;27.70;38.70;;;;;;5100572;28;21266;-83
2022/07/18 09:36:21;;;;;;;1.70;1.60;;;27.80;39.20;;;;;;5110819;28;21377;-82
2022/07/18 09:38:48;;;;;;;1.40;1.30;;;27.90;40.80;;;;;;5099533;28;20608;-84
2022/07/18 09:41:16;;;;;;;2.00;1.90;;;28.00;40.90;;;;;;5100215;28;20698;-82
2022/07/18 09:43:43;;;;;;;2.83;1.50;;;27.80;40.30;;;;;;5107922;28;20971;-83
2022/07/18 09:46:10;;;;;;;1.40;1.30;;;28.00;38.90;;;;;;5110471;28;20699;-83
2022/07/18 09:48:36;;;;;;;1.73;1.63;;;28.10;39.60;;;;;;5110226;28;20631;-81
2022/07/18 09:51:05;;;;;;;1.77;1.67;;;28.30;38.60;;;;;;5109156;28;20665;-82
2022/07/18 09:53:36;;;;;;;2.57;1.93;;;28.30;39.40;;;;;;5102508;28;20619;-81
2022/07/18 09:56:06;;;;;;;1.53;1.43;;;27.80;39.30;;;;;;5092792;28;20712;-82
2022/07/18 09:58:34;;;;;;;1.60;1.50;;;28.00;39.10;;;;;;5088741;28;20681;-84
2022/07/18 10:01:03;;;;;;;1.60;1.50;;;28.20;39.10;;;;;;5095330;28;21144;-83
2022/07/18 10:03:30;;;;;;;2.33;2.13;;;28.40;38.50;;;;;;5100877;28;20723;-84
2022/07/18 10:05:59;;;;;;;1.97;1.87;;;28.70;40.00;;;;;;5090071;28;20702;-82
2022/07/18 10:08:28;;;;;;;1.80;1.70;;;28.80;38.60;;;;;;5089984;28;20655;-82
2022/07/18 10:10:59;;;;;;;3.00;2.20;;;28.90;38.50;;;;;;5106014;28;20651;-82
2022/07/18 10:13:30;;;;;;;1.90;1.80;;;29.10;37.60;;;;;;5109604;28;20620;-82
2022/07/18 10:15:58;;;;;;;1.83;1.73;;;29.20;37.60;;;;;;5101894;28;20624;-81
2022/07/18 10:18:27;;;;;;;2.43;2.23;;;29.30;36.90;;;;;;5089485;28;20625;-83
2022/07/18 10:20:57;;;;;;;1.93;1.80;;;29.40;38.10;;;;;;5089580;28;20609;-82
2022/07/18 10:23:28;;;;;;;1.70;1.60;;;29.50;36.70;;;;;;5098604;28;20696;-82
2022/07/18 10:26:13;;;;;;;2.13;1.90;;;29.60;37.30;;;;;;5110079;28;20695;-81
2022/07/18 10:29:15;;;;;;;1.63;1.53;;;29.90;36.00;;;;;;5098562;28;20628;-84
2022/07/18 10:32:02;;;;;;;1.63;1.43;;;29.80;35.80;;;;;;5109356;28;20676;-84
2022/07/18 10:34:33;;;;;;;1.60;1.50;;;29.90;36.20;;;;;;5108667;28;21030;-84
2022/07/18 10:37:11;;;;;;;1.63;1.53;;;29.80;38.60;;;;;;5102709;28;20647;-84
2022/07/18 10:39:40;;;;;;;2.23;2.13;;;30.00;36.70;;;;;;5097537;28;20608;-85
2022/07/18 10:42:19;;;;;;;1.47;1.40;;;30.20;36.40;;;;;;5088808;28;20655;-85
2022/07/18 10:44:47;;;;;;;2.00;1.90;;;30.30;35.80;;;;;;5087089;28;20711;-84
2022/07/18 10:47:17;;;;;;;1.10;1.10;;;30.50;35.50;;;;;;5087431;28;20750;-84
2022/07/18 10:50:10;;;;;;;1.50;1.40;;;30.50;34.60;;;;;;5088356;28;20646;-84
2022/07/18 10:53:02;;;;;;;1.13;1.03;;;30.70;35.30;;;;;;5087051;28;20617;-85
2022/07/18 10:55:30;;;;;;;1.10;1.10;;;30.70;34.90;;;;;;5088752;28;20707;-84
2022/07/18 10:58:20;;;;;;;1.40;1.30;;;30.80;34.70;;;;;;5088894;28;20620;-85
2022/07/18 11:00:50;;;;;;;1.40;1.30;;;31.00;36.20;;;;;;5088430;28;20628;-84
2022/07/18 11:03:26;;;;;;;1.40;1.30;;;31.20;34.00;;;;;;5107046;28;21165;-85
2022/07/18 11:05:55;;;;;;;1.30;1.20;;;31.40;35.70;;;;;;5109150;28;20663;-85
2022/07/18 11:08:24;;;;;;;1.30;1.20;;;31.60;32.90;;;;;;5108928;28;20706;-84
2022/07/18 11:11:11;;;;;;;1.30;1.20;;;31.60;32.50;;;;;;5108904;28;20719;-82
2022/07/18 11:13:41;;;;;;;1.00;1.00;;;31.50;32.70;;;;;;5108074;28;20699;-84
2022/07/18 11:16:13;;;;;;;1.20;1.00;;;31.70;32.00;;;;;;5105976;28;20680;-84
2022/07/18 11:19:20;;;;;;;0.73;0.73;;;31.80;31.10;;;;;;5101310;28;20628;-83
2022/07/18 11:21:47;;;;;;;1.20;1.10;;;31.90;32.00;;;;;;5079649;28;20648;-85
2022/07/18 11:24:14;;;;;;;0.73;0.73;;;32.40;32.80;;;;;;5104950;28;20624;-84
2022/07/18 11:26:46;;;;;;;1.37;1.13;;;32.60;31.30;;;;;;5107822;28;20627;-85
2022/07/18 11:29:15;;;;;;;1.60;1.50;;;32.70;31.30;;;;;;5107468;28;20651;-84
2022/07/18 11:31:47;;;;;;;0.80;0.80;;;33.00;31.10;;;;;;5107779;28;20712;-85
2022/07/18 11:34:15;;;;;;;1.03;1.03;;;33.10;31.90;;;;;;5107119;28;20624;-85
2022/07/18 11:36:46;;;;;;;1.20;1.10;;;32.90;30.80;;;;;;5107331;28;20719;-85
2022/07/18 11:39:14;;;;;;;1.50;1.40;;;32.70;31.00;;;;;;5104319;28;20719;-84
2022/07/18 11:41:42;;;;;;;1.20;1.20;;;32.90;31.30;;;;;;5106614;28;20616;-84
2022/07/18 11:44:21;;;;;;;1.63;1.53;;;32.20;33.00;;;;;;5103672;28;21094;-84
2022/07/18 11:46:48;;;;;;;1.80;1.40;;;33.10;34.70;;;;;;5105650;28;20942;-85
2022/07/18 11:49:15;;;;;;;1.50;1.40;;;33.80;30.80;;;;;;5106579;28;21208;-86
2022/07/18 11:51:44;;;;;;;0.83;0.83;;;34.20;29.80;;;;;;5107541;28;21368;-86
2022/07/18 11:54:12;;;;;;;1.10;1.00;;;34.50;29.30;;;;;;5107095;28;21181;-84
2022/07/18 11:56:49;;;;;;;1.13;1.13;;;34.80;29.70;;;;;;5107243;28;20627;-85
2022/07/18 11:59:18;;;;;;;1.47;1.37;;;35.40;30.00;;;;;;5107187;28;21489;-87
2022/07/18 12:01:45;;;;;;;1.20;1.20;;;36.00;29.60;;;;;;5105616;28;20672;-85
2022/07/18 12:04:22;;;;;;;1.40;1.30;;;36.50;31.50;;;;;;5107375;28;20676;-85
2022/07/18 12:07:12;;;;;;;1.33;1.23;;;36.90;29.30;;;;;;5107913;28;20654;-85
2022/07/18 12:09:39;;;;;;;1.10;1.00;;;37.70;28.90;;;;;;5106243;28;20634;-86
2022/07/18 12:12:09;;;;;;;1.30;1.20;;;38.40;28.10;;;;;;5107020;28;20687;-85
2022/07/18 12:14:38;;;;;;;1.63;1.52;;;38.40;27.90;;;;;;5107377;28;20201;-86
2022/07/18 12:17:06;;;;;;;0.93;0.85;;;39.20;26.40;;;;;;5107271;28;20254;-86
2022/07/18 12:19:36;;;;;;;0.75;0.75;;;39.60;25.20;;;;;;5107258;28;20261;-83
2022/07/18 12:22:09;;;;;;;1.05;0.93;;;39.90;25.30;;;;;;5106823;28;20289;-83
2022/07/18 12:24:38;;;;;;;1.17;1.02;;;40.30;25.50;;;;;;5087636;28;20296;-84
2022/07/18 12:27:14;;;;;;;1.33;1.25;;;40.70;24.80;;;;;;5106568;28;20249;-85
2022/07/18 12:30:07;;;;;;;1.00;1.00;;;41.00;25.00;;;;;;5106585;28;20222;-82
2022/07/18 12:32:43;;;;;;;0.60;0.60;;;40.90;25.00;;;;;;5105761;28;20199;-82
2022/07/18 12:35:12;;;;;;;0.75;0.75;;;41.00;24.50;;;;;;5086891;28;20288;-83
2022/07/18 12:37:39;;;;;;;0.90;0.90;;;41.20;24.60;;;;;;5086855;28;20314;-84
2022/07/18 12:40:08;;;;;;;1.10;1.10;;;41.30;24.70;;;;;;5089827;28;20232;-82
2022/07/18 12:42:37;;;;;;;0.95;0.95;;;39.60;26.00;;;;;;5109049;28;20207;-83
2022/07/18 12:45:06;;;;;;;1.08;1.08;;;40.30;27.10;;;;;;5110308;28;20240;-84
2022/07/18 12:47:33;;;;;;;1.20;1.10;;;40.80;25.80;;;;;;5107499;27;20896;-83
2022/07/18 12:50:00;;;;;;;1.10;1.10;;;41.40;25.30;;;;;;5111163;28;20222;-82
2022/07/18 12:52:27;;;;;;;0.90;0.90;;;41.50;25.30;;;;;;5110064;28;20206;-84
2022/07/18 12:54:57;;;;;;;1.08;1.08;;;41.80;25.30;;;;;;5110797;28;20283;-84
2022/07/18 12:57:24;;;;;;;1.20;1.10;;;41.90;24.50;;;;;;5110997;28;20241;-83
2022/07/18 12:59:51;;;;;;;1.00;1.00;;;42.30;25.40;;;;;;5109816;28;20296;-82